Buoy 54955

sailwx.info

Track history (hours):
 
Tides and Currents Weather Stations Pressure Air Temp Water Temp Dewpoint Dewpoint Depression Visibility Wind Speed Wind Dir Waves Ship Positions

Luruyu54955

Last reported at 2017-Jul-26 17:00 UTC. Time now 2017-Jul-26 18:44 UTC.
Position S 33°05' W 147°27'.

Length 27 m.

Type: Fishing. MMSI: 412330945.

Barometer 1017.8 mb
Water temperature 16.6 ° C

Date/timePositionNaut miles runAvg speedWind from/ knotsBaromVisibWave heightAir tempDewpointWater temp
2017-Jul-26 17:00S 33°05' W 147°27'1 0.5 1017.8 16.6
2017-Jul-26 16:00S 33°05' W 147°28'0 0.0 1017.4 16.6
2017-Jul-26 15:00S 33°05' W 147°28'1 0.6 1017.2 16.6
2017-Jul-26 14:00S 33°05' W 147°28'0 0.0 1016.9 16.6
2017-Jul-26 13:00S 33°05' W 147°28'1 0.8 1017.5 16.6
2017-Jul-26 12:00S 33°04' W 147°28'1 0.6 1017.7 16.6
2017-Jul-26 11:00S 33°05' W 147°28'2 1.2 1017.4 16.6
2017-Jul-26 09:00S 33°02' W 147°28'0 0.0 1017.9 16.5
2017-Jul-26 08:00S 33°02' W 147°28'1 0.8 1018.1 16.5
2017-Jul-26 07:00S 33°03' W 147°28'1 1.2 1018.5 16.5
2017-Jul-26 06:00S 33°02' W 147°28'1 0.5 1018.6 16.5
2017-Jul-26 05:00S 33°02' W 147°28'1 1.2 1018.5 16.5
2017-Jul-26 04:00S 33°01' W 147°27'1 0.5 1018.1 16.5
2017-Jul-26 03:00S 33°01' W 147°26'0 0.0 1018.0 16.5
2017-Jul-26 02:00S 33°01' W 147°26'1 0.6 1018.1 16.5
2017-Jul-26 01:00S 33°01' W 147°26'0 0.0 1018.0 16.5
2017-Jul-26 00:00S 33°01' W 147°26'2 0.4 1018.2 16.5
2017-Jul-25 19:00S 32°59' W 147°26'0 0.0 1020.6 16.4
2017-Jul-25 18:00S 32°59' W 147°26'1 1.2 1020.0 16.3
2017-Jul-25 17:00S 32°58' W 147°25'1 0.5 1019.7 16.3
2017-Jul-25 16:00S 32°58' W 147°24'1 0.6 1019.1 16.3
2017-Jul-25 15:00S 32°59' W 147°24'1 1.3 1018.8 16.4
2017-Jul-25 14:00S 32°58' W 147°25'1 0.5 1018.4 16.4
2017-Jul-25 13:00S 32°58' W 147°24'1 1.2 1018.5 16.4
2017-Jul-25 12:00S 32°57' W 147°25'0 0.0 1018.6 16.4
2017-Jul-25 11:00S 32°57' W 147°25'1 0.4 1018.9 16.3
2017-Jul-25 09:00S 32°56' W 147°26'1 1.2 1019.9 16.3
2017-Jul-25 08:00S 32°56' W 147°25'1 0.8 1019.7 16.3
2017-Jul-25 07:00S 32°55' W 147°25'1 0.5 1019.3 16.3
2017-Jul-25 06:00S 32°55' W 147°25'1 0.5 1018.7 16.3
2017-Jul-25 05:00S 32°55' W 147°25'1 1.3 1019.3 16.3
2017-Jul-25 04:00S 32°54' W 147°25'1 1.0 1019.2 16.3
2017-Jul-25 03:00S 32°54' W 147°23'1 0.8 1019.3 16.3
2017-Jul-25 02:00S 32°53' W 147°24'1 0.8 1018.8 16.4
2017-Jul-25 01:00S 32°53' W 147°23'0 0.0 1018.7 16.4
2017-Jul-25 00:00S 32°53' W 147°23'2 0.5 1018.5 16.4
2017-Jul-24 20:00S 32°52' W 147°22'1 0.5 1022.4 16.3
2017-Jul-24 19:00S 32°52' W 147°21'1 0.6 1022.2 16.3
2017-Jul-24 18:00S 32°51' W 147°21'0 0.0 1022.1 16.3
2017-Jul-24 17:00S 32°51' W 147°21'1 0.6 1021.8 16.3
2017-Jul-24 16:00S 32°50' W 147°21'2 1.6 1021.3 16.3
2017-Jul-24 15:00S 32°50' W 147°19'1 1.0 1021.2 16.3
2017-Jul-24 14:00S 32°50' W 147°20'1 0.5 1021.3 16.4
2017-Jul-24 13:00S 32°50' W 147°20'1 0.6 1022.2 16.4
2017-Jul-24 12:00S 32°49' W 147°20'0 0.0 1022.6 16.4
2017-Jul-24 11:00S 32°49' W 147°20'2 0.5 1023.6 16.4
2017-Jul-24 08:00S 32°48' W 147°19'1 0.8 1024.4 16.4
2017-Jul-24 07:00S 32°47' W 147°18'1 0.8 1024.7 16.4
2017-Jul-24 06:00S 32°47' W 147°17'1 0.8 1024.9 16.4
2017-Jul-24 05:00S 32°47' W 147°17'1 1.2 1025.4 16.4
2017-Jul-24 04:00S 32°48' W 147°18'2 1.6 1025.0 16.4
2017-Jul-24 03:00S 32°47' W 147°17'1 0.5 1025.0 16.4
2017-Jul-24 02:00S 32°47' W 147°16'0 0.0 1025.4 16.4
2017-Jul-24 01:00S 32°47' W 147°16'0 0.0 1024.6 16.4
2017-Jul-24 00:00S 32°47' W 147°16'1 0.2 1024.7 16.4
2017-Jul-23 19:00S 32°46' W 147°15'1 0.8 1029.1 16.3
2017-Jul-23 18:00S 32°46' W 147°16'1 1.0 1029.2 16.3
2017-Jul-23 17:00S 32°46' W 147°14'1 0.8 1028.6 16.2
2017-Jul-23 16:00S 32°45' W 147°14'1 0.8 1027.6 16.2
2017-Jul-23 15:00S 32°44' W 147°14'1 1.0 1027.2 16.2
2017-Jul-23 14:00S 32°44' W 147°13'1 0.8 1027.0 16.2
2017-Jul-23 13:00S 32°44' W 147°13'1 0.8 1027.5 16.2
2017-Jul-23 12:00S 32°43' W 147°13'0 0.0 1028.4 16.2
2017-Jul-23 11:00S 32°43' W 147°13'3 1.5 1029.0 16.2
2017-Jul-23 09:00S 32°43' W 147°10'1 0.6 1030.0 16.2
2017-Jul-23 08:00S 32°43' W 147°10'1 0.5 1030.9 16.3
2017-Jul-23 07:00S 32°43' W 147°09'1 0.5 1030.8 16.2
2017-Jul-23 06:00S 32°43' W 147°08'1 0.8 1030.8 16.2
2017-Jul-23 05:00S 32°43' W 147°08'1 0.5 1030.3 16.2
2017-Jul-23 04:00S 32°43' W 147°07'0 0.0 1030.0 16.2
2017-Jul-23 03:00S 32°43' W 147°07'1 1.2 1030.1 16.2
2017-Jul-23 02:00S 32°42' W 147°06'0 0.0 1030.5 16.3
2017-Jul-23 01:00S 32°42' W 147°06'0 0.0 1030.2 16.3
2017-Jul-23 00:00S 32°42' W 147°06'2 0.6 1029.8 16.3
2017-Jul-22 20:00S 32°40' W 147°04'1 0.6 1033.6 16.2
2017-Jul-22 19:00S 32°40' W 147°04'0 0.0 1033.0 16.2
2017-Jul-22 18:00S 32°40' W 147°04'1 0.6 1033.3 16.2
2017-Jul-22 17:00S 32°40' W 147°04'2 1.9 1033.7 16.2
2017-Jul-22 16:00S 32°39' W 147°02'1 0.8 1033.5 16.2
2017-Jul-22 15:00S 32°40' W 147°02'0 0.0 1033.1 16.2
2017-Jul-22 14:00S 32°40' W 147°02'1 0.8 1032.9 16.2
2017-Jul-22 13:00S 32°39' W 147°01'0 0.0 1033.0 16.2
2017-Jul-22 12:00S 32°39' W 147°01'0 0.0 1033.5 16.2
2017-Jul-22 11:00S 32°39' W 147°01'2 0.7 1033.9 16.2
2017-Jul-22 08:00S 32°38' W 146°59'1 0.6 1034.8 16.3
2017-Jul-22 07:00S 32°38' W 146°59'2 1.9 1034.9 16.3
2017-Jul-22 06:00S 32°37' W 147°01'2 2.4 1034.8 16.3
2017-Jul-22 05:00S 32°38' W 146°58'1 1.2 1034.7 16.4
2017-Jul-22 04:00S 32°37' W 146°57'0 0.0 1034.5 16.4
2017-Jul-22 03:00S 32°37' W 146°57'2 1.6 1034.2 16.4
2017-Jul-22 02:00S 32°38' W 146°55'1 0.5 1034.2 16.4
2017-Jul-22 01:00S 32°38' W 146°56'0 0.0 1033.9 16.4
2017-Jul-22 00:00S 32°38' W 146°56'2 0.5 1034.2 16.4
2017-Jul-21 20:00S 32°38' W 146°53'2 1.5 1036.2 16.4
2017-Jul-21 19:00S 32°38' W 146°52'0 0.0 1036.4 16.4
2017-Jul-21 18:00S 32°38' W 146°52'1 0.5 1036.2 16.4
2017-Jul-21 17:00S 32°38' W 146°52'1 0.8 1035.9 16.4
2017-Jul-21 16:00S 32°38' W 146°52'2 1.5 1035.8 16.4
2017-Jul-21 15:00S 32°38' W 146°50'0 0.0 1035.4 16.4
2017-Jul-21 14:00S 32°38' W 146°50'0 0.0 1035.2 16.4
2017-Jul-21 13:00S 32°38' W 146°50'0 0.0 1035.3 16.4
2017-Jul-21 12:00S 32°38' W 146°50'1 0.5 1035.6 16.4
2017-Jul-21 11:00S 32°38' W 146°50'0 0.0 1035.9 16.4
2017-Jul-21 08:00S 32°38' W 146°50'0 0.0 1036.3 16.4
2017-Jul-21 07:00S 32°38' W 146°50'1 1.0 1036.0 16.4
2017-Jul-21 06:00S 32°38' W 146°49'1 0.8 1035.8 16.4
2017-Jul-21 05:00S 32°38' W 146°49'0 0.0 1035.8 16.4
2017-Jul-21 04:00S 32°38' W 146°49'1 1.2 1035.3 16.4
2017-Jul-21 03:00S 32°38' W 146°47'0 0.0 1035.2 16.4
2017-Jul-21 02:00S 32°38' W 146°47'1 0.5 1035.1 16.5
2017-Jul-21 01:00S 32°38' W 146°48'0 0.0 1035.1 16.5
2017-Jul-21 00:00S 32°38' W 146°48'2 0.3 1035.0 16.5
2017-Jul-20 19:00S 32°38' W 146°46'1 0.3 1036.1 16.4
2017-Jul-20 17:00S 32°38' W 146°46'0 0.0 1035.3 16.4
2017-Jul-20 16:00S 32°38' W 146°46'1 0.6 1035.0 16.4
2017-Jul-20 15:00S 32°38' W 146°46'0 0.0 1034.5 16.4
2017-Jul-20 14:00S 32°38' W 146°46'0 0.0 1034.2 16.4
2017-Jul-20 13:00S 32°38' W 146°46'1 0.6 1034.3 16.4
2017-Jul-20 12:00S 32°37' W 146°46'0 0.0 1034.7 16.4
2017-Jul-20 11:00S 32°37' W 146°46'1 0.8 1035.0 16.4
2017-Jul-20 10:00S 32°38' W 146°46'1 0.4 1035.2 16.4
2017-Jul-20 07:00S 32°37' W 146°45'1 0.5 1035.2 16.5
2017-Jul-20 06:00S 32°37' W 146°46'1 0.5 1035.1 16.5
2017-Jul-20 05:00S 32°37' W 146°45'0 0.0 1034.8 16.5
2017-Jul-20 04:00S 32°37' W 146°45'1 0.5 1034.2 16.5
2017-Jul-20 03:00S 32°37' W 146°44'1 1.2 1033.5 16.6
2017-Jul-20 02:00S 32°38' W 146°46'0 0.0 1033.0 16.6
2017-Jul-20 01:00S 32°38' W 146°46'1 0.4 1032.6 16.6
2017-Jul-19 23:00S 32°38' W 146°46'1 0.2 1032.7 16.6
2017-Jul-19 20:00S 32°38' W 146°46'1 0.8 1033.1 16.5
2017-Jul-19 19:00S 32°39' W 146°45'1 0.8 1032.8 16.5
2017-Jul-19 18:00S 32°40' W 146°46'1 0.5 1032.1 16.5
2017-Jul-19 17:00S 32°40' W 146°46'0 0.0 1031.4 16.4
2017-Jul-19 16:00S 32°40' W 146°46'0 0.0 1030.6 16.4
2017-Jul-19 15:00S 32°40' W 146°46'1 0.6 1029.7 16.4
2017-Jul-19 14:00S 32°40' W 146°46'0 0.0 1029.1 16.4
2017-Jul-19 13:00S 32°40' W 146°46'1 0.8 1029.1 16.4
2017-Jul-19 12:00S 32°41' W 146°47'1 0.6 1028.9 16.4
2017-Jul-19 11:00S 32°40' W 146°47'2 0.6 1028.7 16.4
2017-Jul-19 08:00S 32°41' W 146°49'1 0.8 1028.2 16.4
2017-Jul-19 07:00S 32°42' W 146°48'0 0.0 1027.7 16.4
2017-Jul-19 06:00S 32°42' W 146°48'3 2.6 1027.2 16.4
2017-Jul-19 05:00S 32°43' W 146°51'0 0.0 1026.5 16.4
2017-Jul-19 04:00S 32°43' W 146°51'2 2.0 1025.4 16.4
2017-Jul-19 03:00S 32°43' W 146°49'0 0.0 1024.6 16.4
2017-Jul-19 02:00S 32°43' W 146°49'2 2.3 1023.9 16.4
2017-Jul-19 01:00S 32°44' W 146°51'0 0.0 1022.9 16.4
2017-Jul-19 00:00S 32°44' W 146°51'4 3.5 1022.5 16.4
2017-Jul-18 23:00S 32°46' W 146°55'1 0.2 1022.1 16.4
2017-Jul-18 19:00S 32°46' W 146°55'0 0.0 1020.9 16.4
2017-Jul-18 18:00S 32°46' W 146°55'0 0.0 1019.9 16.4
2017-Jul-18 17:00S 32°46' W 146°55'1 1.0 1019.2 16.4
2017-Jul-18 16:00S 32°46' W 146°54'0 0.0 1018.2 16.4
2017-Jul-18 15:00S 32°46' W 146°54'3 2.8 1017.3 16.4
2017-Jul-18 14:00S 32°47' W 146°57'1 0.5 1016.7 16.4
2017-Jul-18 13:00S 32°47' W 146°56'2 2.1 1016.4 16.4
2017-Jul-18 12:00S 32°48' W 146°59'3 1.3 1015.9 16.4
2017-Jul-18 10:00S 32°47' W 147°02'0 0.0 1015.7 16.4
2017-Jul-18 09:00S 32°47' W 147°02'0 0.0 1015.5 16.4
2017-Jul-18 08:00S 32°47' W 147°02'1 0.8 1015.3 16.4
2017-Jul-18 07:00S 32°48' W 147°02'1 0.5 1015.0 16.4
2017-Jul-18 06:00S 32°48' W 147°03'1 1.0 1014.4 16.4
2017-Jul-18 05:00S 32°48' W 147°04'0 0.0 1013.7 16.4
2017-Jul-18 04:00S 32°48' W 147°04'1 0.6 1013.0 16.4
2017-Jul-18 03:00S 32°49' W 147°04'1 0.5 1012.3 16.4
2017-Jul-18 02:00S 32°49' W 147°05'2 1.6 1011.6 16.5
2017-Jul-18 01:00S 32°49' W 147°07'4 4.1 1011.2 16.5
2017-Jul-18 00:00S 32°50' W 147°11'0 0.0 1010.8 16.5
2017-Jul-17 23:00S 32°50' W 147°11'1 0.2 1010.7 16.5
2017-Jul-17 19:00S 32°50' W 147°12'0 0.0 1010.6 16.5
2017-Jul-17 18:00S 32°50' W 147°12'1 1.2 1009.7 16.4
2017-Jul-17 17:00S 32°50' W 147°13'1 0.8 1009.1 16.4
2017-Jul-17 16:00S 32°50' W 147°14'2 1.6 1008.4 16.4
2017-Jul-17 15:00S 32°51' W 147°16'0 0.0 1008.0 16.4
2017-Jul-17 14:00S 32°51' W 147°16'0 0.0 1007.9 16.4
2017-Jul-17 13:00S 32°51' W 147°16'2 1.5 1007.9 16.4
2017-Jul-17 12:00S 32°51' W 147°17'3 0.7 1008.1 16.4
2017-Jul-17 07:00S 32°50' W 147°21'1 0.5 1008.1 16.4
2017-Jul-17 06:00S 32°50' W 147°22'0 0.0 1008.0 16.4
2017-Jul-17 05:00S 32°50' W 147°22'1 1.0 1007.6 16.4
2017-Jul-17 04:00S 32°50' W 147°23'1 0.6 1007.1 16.5
2017-Jul-17 03:00S 32°50' W 147°23'1 1.2 1006.6 16.5
2017-Jul-17 02:00S 32°51' W 147°24'1 1.0 1006.1 16.5
2017-Jul-17 01:00S 32°51' W 147°25'0 0.0 1005.7 16.5
2017-Jul-17 00:00S 32°51' W 147°25'0 0.0 1005.3 16.5
2017-Jul-16 23:00S 32°51' W 147°25'5 1.1 1005.3 16.5
2017-Jul-16 19:00S 32°52' W 147°31'0 0.0 1006.3 16.4
2017-Jul-16 18:00S 32°52' W 147°31'1 0.5 1006.1 16.4
2017-Jul-16 17:00S 32°52' W 147°30'   1005.8 16.4
Track history (hours):
 
Tides and Currents Weather Stations Pressure Air Temp Water Temp Dewpoint Dewpoint Depression Visibility Wind Speed Wind Dir Waves Ship Positions

Luruyu54955

Last reported at 2017-Jul-26 17:00 UTC. Time now 2017-Jul-26 18:44 UTC.
Position S 33°05' W 147°27'.

Length 27 m.

Type: Fishing. MMSI: 412330945.

Barometer 1017.8 mb
Water temperature 16.6 ° C

Date/timePositionNaut miles runAvg speedWind from/ knotsBaromVisibWave heightAir tempDewpointWater temp
2017-Jul-26 17:00S 33°05' W 147°27'1 0.5 1017.8 16.6
2017-Jul-26 16:00S 33°05' W 147°28'0 0.0 1017.4 16.6
2017-Jul-26 15:00S 33°05' W 147°28'1 0.6 1017.2 16.6
2017-Jul-26 14:00S 33°05' W 147°28'0 0.0 1016.9 16.6
2017-Jul-26 13:00S 33°05' W 147°28'1 0.8 1017.5 16.6
2017-Jul-26 12:00S 33°04' W 147°28'1 0.6 1017.7 16.6
2017-Jul-26 11:00S 33°05' W 147°28'2 1.2 1017.4 16.6
2017-Jul-26 09:00S 33°02' W 147°28'0 0.0 1017.9 16.5
2017-Jul-26 08:00S 33°02' W 147°28'1 0.8 1018.1 16.5
2017-Jul-26 07:00S 33°03' W 147°28'1 1.2 1018.5 16.5
2017-Jul-26 06:00S 33°02' W 147°28'1 0.5 1018.6 16.5
2017-Jul-26 05:00S 33°02' W 147°28'1 1.2 1018.5 16.5
2017-Jul-26 04:00S 33°01' W 147°27'1 0.5 1018.1 16.5
2017-Jul-26 03:00S 33°01' W 147°26'0 0.0 1018.0 16.5
2017-Jul-26 02:00S 33°01' W 147°26'1 0.6 1018.1 16.5
2017-Jul-26 01:00S 33°01' W 147°26'0 0.0 1018.0 16.5
2017-Jul-26 00:00S 33°01' W 147°26'2 0.4 1018.2 16.5
2017-Jul-25 19:00S 32°59' W 147°26'0 0.0 1020.6 16.4
2017-Jul-25 18:00S 32°59' W 147°26'1 1.2 1020.0 16.3
2017-Jul-25 17:00S 32°58' W 147°25'1 0.5 1019.7 16.3
2017-Jul-25 16:00S 32°58' W 147°24'1 0.6 1019.1 16.3
2017-Jul-25 15:00S 32°59' W 147°24'1 1.3 1018.8 16.4
2017-Jul-25 14:00S 32°58' W 147°25'1 0.5 1018.4 16.4
2017-Jul-25 13:00S 32°58' W 147°24'1 1.2 1018.5 16.4
2017-Jul-25 12:00S 32°57' W 147°25'0 0.0 1018.6 16.4
2017-Jul-25 11:00S 32°57' W 147°25'1 0.4 1018.9 16.3
2017-Jul-25 09:00S 32°56' W 147°26'1 1.2 1019.9 16.3
2017-Jul-25 08:00S 32°56' W 147°25'1 0.8 1019.7 16.3
2017-Jul-25 07:00S 32°55' W 147°25'1 0.5 1019.3 16.3
2017-Jul-25 06:00S 32°55' W 147°25'1 0.5 1018.7 16.3
2017-Jul-25 05:00S 32°55' W 147°25'1 1.3 1019.3 16.3
2017-Jul-25 04:00S 32°54' W 147°25'1 1.0 1019.2 16.3
2017-Jul-25 03:00S 32°54' W 147°23'1 0.8 1019.3 16.3
2017-Jul-25 02:00S 32°53' W 147°24'1 0.8 1018.8 16.4
2017-Jul-25 01:00S 32°53' W 147°23'0 0.0 1018.7 16.4
2017-Jul-25 00:00S 32°53' W 147°23'2 0.5 1018.5 16.4
2017-Jul-24 20:00S 32°52' W 147°22'1 0.5 1022.4 16.3
2017-Jul-24 19:00S 32°52' W 147°21'1 0.6 1022.2 16.3
2017-Jul-24 18:00S 32°51' W 147°21'0 0.0 1022.1 16.3
2017-Jul-24 17:00S 32°51' W 147°21'1 0.6 1021.8 16.3
2017-Jul-24 16:00S 32°50' W 147°21'2 1.6 1021.3 16.3
2017-Jul-24 15:00S 32°50' W 147°19'1 1.0 1021.2 16.3
2017-Jul-24 14:00S 32°50' W 147°20'1 0.5 1021.3 16.4
2017-Jul-24 13:00S 32°50' W 147°20'1 0.6 1022.2 16.4
2017-Jul-24 12:00S 32°49' W 147°20'0 0.0 1022.6 16.4
2017-Jul-24 11:00S 32°49' W 147°20'2 0.5 1023.6 16.4
2017-Jul-24 08:00S 32°48' W 147°19'1 0.8 1024.4 16.4
2017-Jul-24 07:00S 32°47' W 147°18'1 0.8 1024.7 16.4
2017-Jul-24 06:00S 32°47' W 147°17'1 0.8 1024.9 16.4
2017-Jul-24 05:00S 32°47' W 147°17'1 1.2 1025.4 16.4
2017-Jul-24 04:00S 32°48' W 147°18'2 1.6 1025.0 16.4
2017-Jul-24 03:00S 32°47' W 147°17'1 0.5 1025.0 16.4
2017-Jul-24 02:00S 32°47' W 147°16'0 0.0 1025.4 16.4
2017-Jul-24 01:00S 32°47' W 147°16'0 0.0 1024.6 16.4
2017-Jul-24 00:00S 32°47' W 147°16'1 0.2 1024.7 16.4
2017-Jul-23 19:00S 32°46' W 147°15'1 0.8 1029.1 16.3
2017-Jul-23 18:00S 32°46' W 147°16'1 1.0 1029.2 16.3
2017-Jul-23 17:00S 32°46' W 147°14'1 0.8 1028.6 16.2
2017-Jul-23 16:00S 32°45' W 147°14'1 0.8 1027.6 16.2
2017-Jul-23 15:00S 32°44' W 147°14'1 1.0 1027.2 16.2
2017-Jul-23 14:00S 32°44' W 147°13'1 0.8 1027.0 16.2
2017-Jul-23 13:00S 32°44' W 147°13'1 0.8 1027.5 16.2
2017-Jul-23 12:00S 32°43' W 147°13'0 0.0 1028.4 16.2
2017-Jul-23 11:00S 32°43' W 147°13'3 1.5 1029.0 16.2
2017-Jul-23 09:00S 32°43' W 147°10'1 0.6 1030.0 16.2
2017-Jul-23 08:00S 32°43' W 147°10'1 0.5 1030.9 16.3
2017-Jul-23 07:00S 32°43' W 147°09'1 0.5 1030.8 16.2
2017-Jul-23 06:00S 32°43' W 147°08'1 0.8 1030.8 16.2
2017-Jul-23 05:00S 32°43' W 147°08'1 0.5 1030.3 16.2
2017-Jul-23 04:00S 32°43' W 147°07'0 0.0 1030.0 16.2
2017-Jul-23 03:00S 32°43' W 147°07'1 1.2 1030.1 16.2
2017-Jul-23 02:00S 32°42' W 147°06'0 0.0 1030.5 16.3
2017-Jul-23 01:00S 32°42' W 147°06'0 0.0 1030.2 16.3
2017-Jul-23 00:00S 32°42' W 147°06'2 0.6 1029.8 16.3
2017-Jul-22 20:00S 32°40' W 147°04'1 0.6 1033.6 16.2
2017-Jul-22 19:00S 32°40' W 147°04'0 0.0 1033.0 16.2
2017-Jul-22 18:00S 32°40' W 147°04'1 0.6 1033.3 16.2
2017-Jul-22 17:00S 32°40' W 147°04'2 1.9 1033.7 16.2
2017-Jul-22 16:00S 32°39' W 147°02'1 0.8 1033.5 16.2
2017-Jul-22 15:00S 32°40' W 147°02'0 0.0 1033.1 16.2
2017-Jul-22 14:00S 32°40' W 147°02'1 0.8 1032.9 16.2
2017-Jul-22 13:00S 32°39' W 147°01'0 0.0 1033.0 16.2
2017-Jul-22 12:00S 32°39' W 147°01'0 0.0 1033.5 16.2
2017-Jul-22 11:00S 32°39' W 147°01'2 0.7 1033.9 16.2
2017-Jul-22 08:00S 32°38' W 146°59'1 0.6 1034.8 16.3
2017-Jul-22 07:00S 32°38' W 146°59'2 1.9 1034.9 16.3
2017-Jul-22 06:00S 32°37' W 147°01'2 2.4 1034.8 16.3
2017-Jul-22 05:00S 32°38' W 146°58'1 1.2 1034.7 16.4
2017-Jul-22 04:00S 32°37' W 146°57'0 0.0 1034.5 16.4
2017-Jul-22 03:00S 32°37' W 146°57'2 1.6 1034.2 16.4
2017-Jul-22 02:00S 32°38' W 146°55'1 0.5 1034.2 16.4
2017-Jul-22 01:00S 32°38' W 146°56'0 0.0 1033.9 16.4
2017-Jul-22 00:00S 32°38' W 146°56'2 0.5 1034.2 16.4
2017-Jul-21 20:00S 32°38' W 146°53'2 1.5 1036.2 16.4
2017-Jul-21 19:00S 32°38' W 146°52'0 0.0 1036.4 16.4
2017-Jul-21 18:00S 32°38' W 146°52'1 0.5 1036.2 16.4
2017-Jul-21 17:00S 32°38' W 146°52'1 0.8 1035.9 16.4
2017-Jul-21 16:00S 32°38' W 146°52'2 1.5 1035.8 16.4
2017-Jul-21 15:00S 32°38' W 146°50'0 0.0 1035.4 16.4
2017-Jul-21 14:00S 32°38' W 146°50'0 0.0 1035.2 16.4
2017-Jul-21 13:00S 32°38' W 146°50'0 0.0 1035.3 16.4
2017-Jul-21 12:00S 32°38' W 146°50'1 0.5 1035.6 16.4
2017-Jul-21 11:00S 32°38' W 146°50'0 0.0 1035.9 16.4
2017-Jul-21 08:00S 32°38' W 146°50'0 0.0 1036.3 16.4
2017-Jul-21 07:00S 32°38' W 146°50'1 1.0 1036.0 16.4
2017-Jul-21 06:00S 32°38' W 146°49'1 0.8 1035.8 16.4
2017-Jul-21 05:00S 32°38' W 146°49'0 0.0 1035.8 16.4
2017-Jul-21 04:00S 32°38' W 146°49'1 1.2 1035.3 16.4
2017-Jul-21 03:00S 32°38' W 146°47'0 0.0 1035.2 16.4
2017-Jul-21 02:00S 32°38' W 146°47'1 0.5 1035.1 16.5
2017-Jul-21 01:00S 32°38' W 146°48'0 0.0 1035.1 16.5
2017-Jul-21 00:00S 32°38' W 146°48'2 0.3 1035.0 16.5
2017-Jul-20 19:00S 32°38' W 146°46'1 0.3 1036.1 16.4
2017-Jul-20 17:00S 32°38' W 146°46'0 0.0 1035.3 16.4
2017-Jul-20 16:00S 32°38' W 146°46'1 0.6 1035.0 16.4
2017-Jul-20 15:00S 32°38' W 146°46'0 0.0 1034.5 16.4
2017-Jul-20 14:00S 32°38' W 146°46'0 0.0 1034.2 16.4
2017-Jul-20 13:00S 32°38' W 146°46'1 0.6 1034.3 16.4
2017-Jul-20 12:00S 32°37' W 146°46'0 0.0 1034.7 16.4
2017-Jul-20 11:00S 32°37' W 146°46'1 0.8 1035.0 16.4
2017-Jul-20 10:00S 32°38' W 146°46'1 0.4 1035.2 16.4
2017-Jul-20 07:00S 32°37' W 146°45'1 0.5 1035.2 16.5
2017-Jul-20 06:00S 32°37' W 146°46'1 0.5 1035.1 16.5
2017-Jul-20 05:00S 32°37' W 146°45'0 0.0 1034.8 16.5
2017-Jul-20 04:00S 32°37' W 146°45'1 0.5 1034.2 16.5
2017-Jul-20 03:00S 32°37' W 146°44'1 1.2 1033.5 16.6
2017-Jul-20 02:00S 32°38' W 146°46'0 0.0 1033.0 16.6
2017-Jul-20 01:00S 32°38' W 146°46'1 0.4 1032.6 16.6
2017-Jul-19 23:00S 32°38' W 146°46'1 0.2 1032.7 16.6
2017-Jul-19 20:00S 32°38' W 146°46'1 0.8 1033.1 16.5
2017-Jul-19 19:00S 32°39' W 146°45'1 0.8 1032.8 16.5
2017-Jul-19 18:00S 32°40' W 146°46'1 0.5 1032.1 16.5
2017-Jul-19 17:00S 32°40' W 146°46'0 0.0 1031.4 16.4
2017-Jul-19 16:00S 32°40' W 146°46'0 0.0 1030.6 16.4
2017-Jul-19 15:00S 32°40' W 146°46'1 0.6 1029.7 16.4
2017-Jul-19 14:00S 32°40' W 146°46'0 0.0 1029.1 16.4
2017-Jul-19 13:00S 32°40' W 146°46'1 0.8 1029.1 16.4
2017-Jul-19 12:00S 32°41' W 146°47'1 0.6 1028.9 16.4
2017-Jul-19 11:00S 32°40' W 146°47'2 0.6 1028.7 16.4
2017-Jul-19 08:00S 32°41' W 146°49'1 0.8 1028.2 16.4
2017-Jul-19 07:00S 32°42' W 146°48'0 0.0 1027.7 16.4
2017-Jul-19 06:00S 32°42' W 146°48'3 2.6 1027.2 16.4
2017-Jul-19 05:00S 32°43' W 146°51'0 0.0 1026.5 16.4
2017-Jul-19 04:00S 32°43' W 146°51'2 2.0 1025.4 16.4
2017-Jul-19 03:00S 32°43' W 146°49'0 0.0 1024.6 16.4
2017-Jul-19 02:00S 32°43' W 146°49'2 2.3 1023.9 16.4
2017-Jul-19 01:00S 32°44' W 146°51'0 0.0 1022.9 16.4
2017-Jul-19 00:00S 32°44' W 146°51'4 3.5 1022.5 16.4
2017-Jul-18 23:00S 32°46' W 146°55'1 0.2 1022.1 16.4
2017-Jul-18 19:00S 32°46' W 146°55'0 0.0 1020.9 16.4
2017-Jul-18 18:00S 32°46' W 146°55'0 0.0 1019.9 16.4
2017-Jul-18 17:00S 32°46' W 146°55'1 1.0 1019.2 16.4
2017-Jul-18 16:00S 32°46' W 146°54'0 0.0 1018.2 16.4
2017-Jul-18 15:00S 32°46' W 146°54'3 2.8 1017.3 16.4
2017-Jul-18 14:00S 32°47' W 146°57'1 0.5 1016.7 16.4
2017-Jul-18 13:00S 32°47' W 146°56'2 2.1 1016.4 16.4
2017-Jul-18 12:00S 32°48' W 146°59'3 1.3 1015.9 16.4
2017-Jul-18 10:00S 32°47' W 147°02'0 0.0 1015.7 16.4
2017-Jul-18 09:00S 32°47' W 147°02'0 0.0 1015.5 16.4
2017-Jul-18 08:00S 32°47' W 147°02'1 0.8 1015.3 16.4
2017-Jul-18 07:00S 32°48' W 147°02'1 0.5 1015.0 16.4
2017-Jul-18 06:00S 32°48' W 147°03'1 1.0 1014.4 16.4
2017-Jul-18 05:00S 32°48' W 147°04'0 0.0 1013.7 16.4
2017-Jul-18 04:00S 32°48' W 147°04'1 0.6 1013.0 16.4
2017-Jul-18 03:00S 32°49' W 147°04'1 0.5 1012.3 16.4
2017-Jul-18 02:00S 32°49' W 147°05'2 1.6 1011.6 16.5
2017-Jul-18 01:00S 32°49' W 147°07'4 4.1 1011.2 16.5
2017-Jul-18 00:00S 32°50' W 147°11'0 0.0 1010.8 16.5
2017-Jul-17 23:00S 32°50' W 147°11'1 0.2 1010.7 16.5
2017-Jul-17 19:00S 32°50' W 147°12'0 0.0 1010.6 16.5
2017-Jul-17 18:00S 32°50' W 147°12'1 1.2 1009.7 16.4
2017-Jul-17 17:00S 32°50' W 147°13'1 0.8 1009.1 16.4
2017-Jul-17 16:00S 32°50' W 147°14'2 1.6 1008.4 16.4
2017-Jul-17 15:00S 32°51' W 147°16'0 0.0 1008.0 16.4
2017-Jul-17 14:00S 32°51' W 147°16'0 0.0 1007.9 16.4
2017-Jul-17 13:00S 32°51' W 147°16'2 1.5 1007.9 16.4
2017-Jul-17 12:00S 32°51' W 147°17'3 0.7 1008.1 16.4
2017-Jul-17 07:00S 32°50' W 147°21'1 0.5 1008.1 16.4
2017-Jul-17 06:00S 32°50' W 147°22'0 0.0 1008.0 16.4
2017-Jul-17 05:00S 32°50' W 147°22'1 1.0 1007.6 16.4
2017-Jul-17 04:00S 32°50' W 147°23'1 0.6 1007.1 16.5
2017-Jul-17 03:00S 32°50' W 147°23'1 1.2 1006.6 16.5
2017-Jul-17 02:00S 32°51' W 147°24'1 1.0 1006.1 16.5
2017-Jul-17 01:00S 32°51' W 147°25'0 0.0 1005.7 16.5
2017-Jul-17 00:00S 32°51' W 147°25'0 0.0 1005.3 16.5
2017-Jul-16 23:00S 32°51' W 147°25'5 1.1 1005.3 16.5
2017-Jul-16 19:00S 32°52' W 147°31'0 0.0 1006.3 16.4
2017-Jul-16 18:00S 32°52' W 147°31'1 0.5 1006.1 16.4
2017-Jul-16 17:00S 32°52' W 147°30'   1005.8 16.4

Dump ship's entire track history